Time;durP1;ratioP1;P1;durP2;ratioP2;P2;SDS_P1;SDS_P2;PMS_P1;PMS_P2;Temp;Humidity;BMP_temperature;BMP_pressure;BME280_temperature;BME280_humidity;BME280_pressure;Samples;Min_cycle;Max_cycle;Signal;HPM_P1;HPM_P2
2023/06/22 05:00:56;;;;;;;11.03;9.93;;;23.20;97.20;;;;;;1734574;28;20199;-71
2023/06/22 05:01:47;;;;;;;10.70;9.70;;;23.20;97.20;;;;;;1734091;28;20279;-71
2023/06/22 05:02:39;;;;;;;15.07;10.67;;;23.20;97.20;;;;;;1734100;28;20297;-71
2023/06/22 05:03:30;;;;;;;12.85;9.80;;;23.20;97.20;;;;;;1733756;28;20196;-71
2023/06/22 05:04:23;;;;;;;13.00;10.10;;;23.20;97.20;;;;;;1734405;28;20206;-70
2023/06/22 05:05:15;;;;;;;11.32;9.73;;;23.20;97.20;;;;;;1734443;28;20204;-71
2023/06/22 05:06:06;;;;;;;12.10;10.13;;;23.30;97.20;;;;;;1734391;28;20249;-70
2023/06/22 05:06:58;;;;;;;12.33;9.50;;;23.30;97.20;;;;;;1734466;28;20199;-71
2023/06/22 05:07:52;;;;;;;12.50;9.32;;;23.30;97.20;;;;;;1734431;28;20599;-72
2023/06/22 05:08:44;;;;;;;10.88;9.80;;;23.30;97.20;;;;;;1734430;28;20227;-72
2023/06/22 05:09:35;;;;;;;10.32;9.23;;;23.40;97.20;;;;;;1729823;28;20197;-70
2023/06/22 05:10:27;;;;;;;12.03;10.00;;;23.40;97.20;;;;;;1727470;28;20201;-71
2023/06/22 05:11:17;;;;;;;10.38;8.85;;;23.40;97.20;;;;;;1727570;28;20220;-71
2023/06/22 05:12:09;;;;;;;14.10;9.10;;;23.50;97.20;;;;;;1727610;28;20197;-70
2023/06/22 05:13:00;;;;;;;10.20;9.20;;;23.50;97.20;;;;;;1729985;28;20608;-71
2023/06/22 05:13:52;;;;;;;11.80;9.87;;;23.50;97.20;;;;;;1727311;28;20188;-72
2023/06/22 05:14:43;;;;;;;11.98;9.30;;;23.50;97.20;;;;;;1728886;28;20277;-70
2023/06/22 05:15:38;;;;;;;10.70;9.70;;;23.50;97.20;;;;;;1729964;28;20208;-71
2023/06/22 05:16:30;;;;;;;10.20;9.20;;;23.50;97.20;;;;;;1726769;28;20736;-71
2023/06/22 05:17:22;;;;;;;9.70;8.80;;;23.60;97.20;;;;;;1726999;28;20205;-71
2023/06/22 05:18:13;;;;;;;10.63;9.52;;;23.60;97.20;;;;;;1727395;28;20476;-71
2023/06/22 05:19:05;;;;;;;9.13;8.23;;;23.60;97.20;;;;;;1727496;28;20291;-70
2023/06/22 05:19:55;;;;;;;10.05;9.05;;;23.60;97.20;;;;;;1727585;28;20208;-71
2023/06/22 05:20:47;;;;;;;10.43;9.00;;;23.70;97.20;;;;;;1727337;28;20743;-71
2023/06/22 05:21:38;;;;;;;11.07;9.02;;;23.70;97.20;;;;;;1727571;28;20289;-71
2023/06/22 05:22:30;;;;;;;10.52;9.52;;;23.70;97.20;;;;;;1727465;28;20201;-71
2023/06/22 05:23:21;;;;;;;10.32;9.35;;;23.70;97.20;;;;;;1727005;28;20216;-70
2023/06/22 05:24:13;;;;;;;11.03;9.90;;;23.80;97.20;;;;;;1727501;28;20223;-71
2023/06/22 05:25:06;;;;;;;11.32;8.82;;;23.80;97.20;;;;;;1727503;28;20691;-71
2023/06/22 05:25:57;;;;;;;33.63;10.80;;;23.80;97.20;;;;;;1727617;28;20207;-71
2023/06/22 05:26:48;;;;;;;26.60;11.20;;;23.80;97.20;;;;;;1727412;28;20204;-69
2023/06/22 05:27:40;;;;;;;13.23;9.77;;;23.80;97.20;;;;;;1727488;28;20275;-71
2023/06/22 05:28:31;;;;;;;9.98;9.15;;;23.80;97.20;;;;;;1727481;28;20208;-71
2023/06/22 05:29:22;;;;;;;15.20;8.60;;;23.80;97.20;;;;;;1727471;28;20253;-71
2023/06/22 05:30:13;;;;;;;10.60;8.95;;;23.90;97.20;;;;;;1727294;28;20343;-71
2023/06/22 05:31:05;;;;;;;12.80;9.20;;;23.90;97.20;;;;;;1727498;28;20254;-70
2023/06/22 05:31:57;;;;;;;14.63;9.10;;;23.90;97.20;;;;;;1727483;28;20443;-70
2023/06/22 05:32:49;;;;;;;20.92;8.85;;;23.90;97.20;;;;;;1727405;28;20205;-72
2023/06/22 05:33:40;;;;;;;14.55;9.73;;;24.00;97.20;;;;;;1727130;28;20204;-71
2023/06/22 05:34:32;;;;;;;12.85;7.97;;;24.00;97.20;;;;;;1728293;28;20251;-70
2023/06/22 05:35:22;;;;;;;35.75;10.52;;;24.00;97.20;;;;;;1727532;28;20200;-72
2023/06/22 05:36:15;;;;;;;31.53;9.80;;;24.00;97.20;;;;;;1727483;28;20204;-71
2023/06/22 05:37:06;;;;;;;17.48;9.00;;;24.10;97.20;;;;;;1727509;28;20196;-71
2023/06/22 05:37:57;;;;;;;16.00;10.50;;;24.10;97.20;;;;;;1727328;28;20192;-71
2023/06/22 05:38:48;;;;;;;21.63;8.90;;;24.10;97.20;;;;;;1727550;28;20197;-70
2023/06/22 05:39:40;;;;;;;15.47;8.27;;;24.10;97.20;;;;;;1727054;28;20668;-71
2023/06/22 05:40:30;;;;;;;16.35;8.85;;;24.20;97.20;;;;;;1727428;28;20235;-70
2023/06/22 05:41:22;;;;;;;13.73;8.27;;;24.20;97.20;;;;;;1727420;28;20206;-69
2023/06/22 05:42:13;;;;;;;18.35;9.00;;;24.20;97.20;;;;;;1727363;28;20212;-70
2023/06/22 05:43:05;;;;;;;16.33;8.70;;;24.20;97.20;;;;;;1727089;28;20200;-69
2023/06/22 05:43:55;;;;;;;12.88;7.75;;;24.20;97.20;;;;;;1727406;28;20578;-71
2023/06/22 05:44:47;;;;;;;18.57;9.20;;;24.20;97.20;;;;;;1728830;28;20184;-70
2023/06/22 05:45:38;;;;;;;8.80;7.90;;;24.20;97.20;;;;;;1734174;28;20337;-70
2023/06/22 05:46:30;;;;;;;10.70;8.40;;;24.30;97.20;;;;;;1734233;28;20207;-70
2023/06/22 05:47:22;;;;;;;11.98;8.70;;;24.30;97.20;;;;;;1734198;28;20231;-70
2023/06/22 05:48:14;;;;;;;10.75;7.97;;;24.30;97.20;;;;;;1734257;28;20299;-69
2023/06/22 05:49:05;;;;;;;12.63;8.77;;;24.30;97.20;;;;;;1734153;28;20207;-69
2023/06/22 05:49:58;;;;;;;11.43;7.97;;;24.30;97.20;;;;;;1734129;28;20195;-69
2023/06/22 05:50:49;;;;;;;9.00;7.30;;;24.30;97.20;;;;;;1734144;28;20675;-69
2023/06/22 05:51:41;;;;;;;10.77;6.70;;;24.30;97.20;;;;;;1734157;28;20643;-72
2023/06/22 05:52:32;;;;;;;9.93;7.90;;;24.40;97.20;;;;;;1726730;28;21071;-72
2023/06/22 05:53:23;;;;;;;17.23;8.30;;;24.40;97.20;;;;;;1726683;28;20226;-73
2023/06/22 05:54:17;;;;;;;13.98;8.38;;;24.40;97.20;;;;;;1727151;28;20204;-72
2023/06/22 05:55:10;;;;;;;11.90;7.85;;;24.40;97.20;;;;;;1727304;28;20688;-73
2023/06/22 05:56:00;;;;;;;9.68;7.82;;;24.40;97.20;;;;;;1727273;28;20200;-72
2023/06/22 05:56:52;;;;;;;13.37;8.53;;;24.50;97.20;;;;;;1727497;28;20222;-71
2023/06/22 05:57:43;;;;;;;9.60;7.55;;;24.50;97.20;;;;;;1727243;28;20729;-72
2023/06/22 05:58:36;;;;;;;13.37;7.77;;;24.50;97.20;;;;;;1727319;28;20625;-72
2023/06/22 05:59:26;;;;;;;12.10;8.05;;;24.50;97.20;;;;;;1727381;28;20268;-71
2023/06/22 06:00:19;;;;;;;11.33;8.00;;;24.60;97.20;;;;;;1727215;28;20201;-72
2023/06/22 06:01:10;;;;;;;16.58;7.88;;;24.60;97.20;;;;;;1727140;28;20207;-74
2023/06/22 06:02:01;;;;;;;11.93;8.03;;;24.60;97.20;;;;;;1727290;28;20200;-73
2023/06/22 06:02:53;;;;;;;22.55;9.02;;;24.60;97.20;;;;;;1727129;28;20212;-71
2023/06/22 06:03:45;;;;;;;23.88;7.80;;;24.60;97.20;;;;;;1726980;28;20216;-73
2023/06/22 06:04:36;;;;;;;19.88;8.80;;;24.60;97.20;;;;;;1727214;28;20243;-72
2023/06/22 06:05:28;;;;;;;9.87;7.30;;;24.60;97.20;;;;;;1727358;28;20205;-73
2023/06/22 06:06:21;;;;;;;38.88;10.75;;;24.70;97.20;;;;;;1727240;28;20350;-74
2023/06/22 06:07:12;;;;;;;27.38;10.38;;;24.70;97.20;;;;;;1727383;28;20660;-73
2023/06/22 06:08:04;;;;;;;36.83;10.95;;;24.70;97.20;;;;;;1727253;28;20203;-74
2023/06/22 06:08:57;;;;;;;155.68;26.13;;;24.70;97.20;;;;;;1727431;28;20660;-75
2023/06/22 06:09:48;;;;;;;192.27;27.98;;;24.70;97.20;;;;;;1727168;28;20196;-72
2023/06/22 06:10:40;;;;;;;211.10;29.75;;;24.70;97.20;;;;;;1728271;28;20205;-72
2023/06/22 06:11:31;;;;;;;171.32;25.30;;;24.70;97.20;;;;;;1727476;28;20261;-73
2023/06/22 06:12:22;;;;;;;230.48;32.70;;;24.70;97.20;;;;;;1727354;28;20196;-72
2023/06/22 06:13:13;;;;;;;221.88;31.92;;;24.70;97.20;;;;;;1727148;28;20204;-73
2023/06/22 06:14:05;;;;;;;167.03;25.97;;;24.80;97.20;;;;;;1727438;28;20192;-74
2023/06/22 06:14:56;;;;;;;67.68;16.67;;;24.70;97.20;;;;;;1727266;28;20256;-72
2023/06/22 06:15:48;;;;;;;83.47;16.00;;;24.80;97.20;;;;;;1727482;28;20619;-73
2023/06/22 06:16:39;;;;;;;102.75;18.20;;;24.80;97.20;;;;;;1727367;28;20227;-69
2023/06/22 06:17:30;;;;;;;134.77;25.10;;;24.80;97.20;;;;;;1727323;28;20204;-69
2023/06/22 06:18:24;;;;;;;47.30;13.13;;;24.80;97.20;;;;;;1727330;28;20569;-70
2023/06/22 06:19:15;;;;;;;104.55;20.77;;;24.80;97.20;;;;;;1727391;28;20580;-69
2023/06/22 06:20:08;;;;;;;109.60;22.93;;;24.80;97.20;;;;;;1727399;28;20564;-70
2023/06/22 06:20:59;;;;;;;66.65;16.23;;;24.80;97.20;;;;;;1732522;28;20227;-70
2023/06/22 06:21:51;;;;;;;219.80;35.00;;;24.90;97.20;;;;;;1734124;28;20200;-70
2023/06/22 06:22:42;;;;;;;94.63;20.42;;;24.90;97.20;;;;;;1734174;28;20200;-70
2023/06/22 06:23:34;;;;;;;151.82;28.17;;;24.90;97.20;;;;;;1733800;28;20196;-70
2023/06/22 06:24:25;;;;;;;122.07;23.48;;;25.00;97.20;;;;;;1734091;28;20238;-69
2023/06/22 06:25:18;;;;;;;80.70;18.00;;;25.00;97.20;;;;;;1734205;28;20200;-70
2023/06/22 06:26:09;;;;;;;35.92;11.60;;;25.10;97.20;;;;;;1734228;28;20314;-69
2023/06/22 06:27:04;;;;;;;149.27;25.10;;;25.10;97.20;;;;;;1734111;28;20807;-69
2023/06/22 06:27:55;;;;;;;110.28;22.60;;;25.10;97.20;;;;;;1734046;28;20897;-69
2023/06/22 06:28:47;;;;;;;69.10;13.20;;;25.10;97.20;;;;;;1734137;28;20195;-69
2023/06/22 06:29:38;;;;;;;39.58;11.65;;;25.10;97.20;;;;;;1734125;28;20211;-71
2023/06/22 06:30:29;;;;;;;57.77;13.00;;;25.20;97.20;;;;;;1733941;28;20205;-73
2023/06/22 06:31:20;;;;;;;48.58;14.25;;;25.20;97.20;;;;;;1734047;28;20206;-73
2023/06/22 06:32:12;;;;;;;51.57;15.17;;;25.20;97.20;;;;;;1734162;28;20677;-72
2023/06/22 06:33:04;;;;;;;28.50;10.27;;;25.20;97.20;;;;;;1733766;28;20450;-72
2023/06/22 06:33:57;;;;;;;64.20;16.33;;;25.20;97.20;;;;;;1734002;28;20679;-73
2023/06/22 06:34:48;;;;;;;61.90;13.93;;;25.20;97.20;;;;;;1732260;28;20258;-72
2023/06/22 06:35:40;;;;;;;41.90;11.83;;;25.30;97.20;;;;;;1734127;28;20199;-72
2023/06/22 06:36:31;;;;;;;43.67;13.25;;;25.30;97.20;;;;;;1734110;28;20701;-73
2023/06/22 06:37:23;;;;;;;55.22;13.75;;;25.30;97.20;;;;;;1734125;28;20199;-73
2023/06/22 06:38:13;;;;;;;37.05;11.00;;;25.30;97.20;;;;;;1734182;28;20203;-72
2023/06/22 06:39:05;;;;;;;49.77;12.97;;;25.40;97.20;;;;;;1734137;28;20200;-73
2023/06/22 06:39:56;;;;;;;28.00;9.45;;;25.40;97.20;;;;;;1734123;28;20586;-74
2023/06/22 06:40:48;;;;;;;14.13;8.13;;;25.40;97.20;;;;;;1734020;28;20590;-73
2023/06/22 06:41:39;;;;;;;12.05;7.78;;;25.40;97.20;;;;;;1734084;28;20264;-73
2023/06/22 06:42:31;;;;;;;23.33;9.33;;;25.40;97.20;;;;;;1734128;28;20203;-73
2023/06/22 06:43:22;;;;;;;31.33;10.77;;;25.50;97.20;;;;;;1733793;28;20683;-74
2023/06/22 06:44:14;;;;;;;28.17;11.90;;;25.50;97.20;;;;;;1734148;28;20210;-73
2023/06/22 06:45:06;;;;;;;14.98;8.63;;;25.50;97.20;;;;;;1734031;28;20667;-73
2023/06/22 06:45:57;;;;;;;26.38;10.60;;;25.50;97.20;;;;;;1734030;28;20195;-72
2023/06/22 06:46:48;;;;;;;17.35;8.98;;;25.60;97.20;;;;;;1734139;28;20196;-73
2023/06/22 06:47:40;;;;;;;12.90;7.40;;;25.60;97.20;;;;;;1734280;28;20208;-72
2023/06/22 06:48:31;;;;;;;17.70;8.40;;;25.60;97.20;;;;;;1734113;28;20442;-72
2023/06/22 06:49:24;;;;;;;11.97;6.97;;;25.60;97.20;;;;;;1734063;28;20204;-72
2023/06/22 06:50:15;;;;;;;12.88;8.45;;;25.70;97.20;;;;;;1733760;28;20290;-72
2023/06/22 06:51:09;;;;;;;11.67;8.43;;;25.70;97.20;;;;;;1728333;28;20200;-72
2023/06/22 06:51:59;;;;;;;14.15;8.52;;;25.70;97.20;;;;;;1726899;28;20927;-72
2023/06/22 06:52:51;;;;;;;10.63;7.97;;;25.70;97.20;;;;;;1727198;28;20652;-73
2023/06/22 06:53:42;;;;;;;12.85;7.50;;;25.80;97.20;;;;;;1727010;28;20571;-72
2023/06/22 06:54:33;;;;;;;13.80;7.50;;;25.80;97.20;;;;;;1727196;28;20637;-72
2023/06/22 06:55:25;;;;;;;12.77;7.55;;;25.80;97.20;;;;;;1727266;28;20228;-72
2023/06/22 06:56:17;;;;;;;10.80;7.05;;;25.80;97.20;;;;;;1727308;28;20208;-72
2023/06/22 06:57:10;;;;;;;19.83;7.55;;;25.80;97.20;;;;;;1727271;28;20204;-72
2023/06/22 06:58:04;;;;;;;12.75;7.30;;;25.80;97.20;;;;;;1727247;28;20196;-72
2023/06/22 06:58:55;;;;;;;10.43;7.40;;;25.80;97.20;;;;;;1727266;28;20695;-71
2023/06/22 06:59:47;;;;;;;9.02;7.25;;;25.80;97.20;;;;;;1727333;28;20454;-71
2023/06/22 07:00:37;;;;;;;13.55;8.07;;;25.90;97.20;;;;;;1727166;28;20224;-72
2023/06/22 07:01:33;;;;;;;14.43;8.40;;;25.90;97.20;;;;;;1727264;28;20283;-72
2023/06/22 07:02:24;;;;;;;24.45;8.30;;;25.90;97.20;;;;;;1727287;28;20205;-71
2023/06/22 07:03:15;;;;;;;13.03;8.67;;;26.00;97.20;;;;;;1726818;28;20288;-73
2023/06/22 07:04:06;;;;;;;22.80;9.10;;;26.00;97.20;;;;;;1727212;28;20447;-72
2023/06/22 07:04:59;;;;;;;15.50;8.00;;;26.10;97.20;;;;;;1727125;28;20192;-72
2023/06/22 07:05:50;;;;;;;11.77;7.68;;;26.10;97.20;;;;;;1727282;28;20602;-71
2023/06/22 07:06:42;;;;;;;15.53;8.20;;;26.10;97.20;;;;;;1728275;28;20586;-71
2023/06/22 07:07:34;;;;;;;13.63;7.60;;;26.20;97.20;;;;;;1727328;28;20889;-72
2023/06/22 07:08:25;;;;;;;10.63;7.27;;;26.20;97.20;;;;;;1727210;28;20295;-72
2023/06/22 07:09:18;;;;;;;17.50;8.07;;;26.20;97.20;;;;;;1720435;28;20889;-72
2023/06/22 07:10:11;;;;;;;15.00;7.35;;;26.30;97.20;;;;;;1720554;28;20441;-72
2023/06/22 07:11:01;;;;;;;13.70;7.78;;;26.30;97.20;;;;;;1720288;28;20680;-72
2023/06/22 07:11:53;;;;;;;11.73;7.30;;;26.30;97.20;;;;;;1720487;28;20673;-71
2023/06/22 07:12:44;;;;;;;7.00;6.30;;;26.40;97.20;;;;;;1720423;28;20205;-72
2023/06/22 07:13:35;;;;;;;12.77;7.00;;;26.40;97.20;;;;;;1720157;28;20448;-72
2023/06/22 07:14:26;;;;;;;11.60;6.65;;;26.40;97.20;;;;;;1720487;28;20667;-72
2023/06/22 07:15:18;;;;;;;10.13;6.47;;;26.40;97.20;;;;;;1720350;28;20641;-72
2023/06/22 07:16:09;;;;;;;13.23;7.85;;;26.40;97.20;;;;;;1720401;28;20237;-72
2023/06/22 07:17:00;;;;;;;12.70;6.90;;;26.50;97.20;;;;;;1720411;28;20208;-72
2023/06/22 07:17:51;;;;;;;10.80;6.50;;;26.50;97.20;;;;;;1720473;28;20205;-72
2023/06/22 07:18:43;;;;;;;11.37;7.77;;;26.50;97.20;;;;;;1720281;28;20205;-71
2023/06/22 07:19:33;;;;;;;11.18;7.35;;;26.50;97.20;;;;;;1720250;28;20678;-71
2023/06/22 07:20:26;;;;;;;11.10;7.00;;;26.60;97.20;;;;;;1720366;28;20201;-72
2023/06/22 07:21:17;;;;;;;9.00;6.97;;;26.60;97.20;;;;;;1720366;28;20216;-72
2023/06/22 07:22:09;;;;;;;9.73;7.30;;;26.60;97.20;;;;;;1720416;28;20447;-72
2023/06/22 07:23:01;;;;;;;15.07;7.30;;;26.70;97.20;;;;;;1720375;28;20205;-71
2023/06/22 07:23:51;;;;;;;12.77;7.37;;;26.70;97.20;;;;;;1733077;28;20204;-72
2023/06/22 07:24:43;;;;;;;14.00;7.27;;;26.70;97.20;;;;;;1733566;28;20439;-72
2023/06/22 07:25:35;;;;;;;19.83;7.50;;;26.70;97.20;;;;;;1733608;28;20199;-72
2023/06/22 07:26:25;;;;;;;12.60;7.30;;;26.80;97.20;;;;;;1733965;28;20442;-72
2023/06/22 07:27:19;;;;;;;10.50;6.87;;;26.80;97.20;;;;;;1733958;28;20450;-72
2023/06/22 07:28:09;;;;;;;9.90;6.97;;;26.80;97.20;;;;;;1733978;28;20231;-72
2023/06/22 07:29:01;;;;;;;8.80;6.60;;;26.90;97.20;;;;;;1733964;28;20442;-72
2023/06/22 07:29:52;;;;;;;8.70;5.60;;;26.90;97.20;;;;;;1733980;28;20204;-71
2023/06/22 07:30:43;;;;;;;6.73;6.03;;;26.90;97.20;;;;;;1733817;28;20476;-71
2023/06/22 07:31:34;;;;;;;9.15;6.43;;;26.90;97.20;;;;;;1733921;28;20227;-71
2023/06/22 07:32:28;;;;;;;8.97;6.43;;;26.90;97.20;;;;;;1734066;28;20210;-71
2023/06/22 07:33:20;;;;;;;9.55;6.57;;;26.90;97.20;;;;;;1733615;28;20265;-72
2023/06/22 07:34:11;;;;;;;7.22;6.38;;;26.90;97.20;;;;;;1733952;28;20211;-71
2023/06/22 07:35:02;;;;;;;11.43;6.27;;;26.90;97.20;;;;;;1733783;28;20202;-73
2023/06/22 07:35:54;;;;;;;9.10;5.73;;;26.90;97.20;;;;;;1733949;28;20211;-71
2023/06/22 07:36:47;;;;;;;9.27;5.80;;;26.90;97.20;;;;;;1733907;28;20438;-71
2023/06/22 07:37:37;;;;;;;6.80;6.10;;;26.90;97.20;;;;;;1733844;28;20466;-72
2023/06/22 07:38:29;;;;;;;8.13;6.33;;;26.90;97.20;;;;;;1734033;28;20521;-72
2023/06/22 07:39:25;;;;;;;9.70;6.27;;;26.90;97.20;;;;;;1733877;28;20211;-72
2023/06/22 07:40:17;;;;;;;10.30;6.73;;;26.90;97.20;;;;;;1729164;28;20447;-71
2023/06/22 07:41:08;;;;;;;9.35;6.10;;;26.90;97.20;;;;;;1728350;28;20439;-72
2023/06/22 07:41:59;;;;;;;8.73;6.40;;;26.90;97.20;;;;;;1728360;28;20204;-71
2023/06/22 07:42:51;;;;;;;8.33;6.90;;;26.80;97.20;;;;;;1728461;28;20451;-71
2023/06/22 07:43:43;;;;;;;9.55;6.30;;;26.80;97.20;;;;;;1728033;28;20475;-72
2023/06/22 07:44:34;;;;;;;9.00;6.50;;;26.80;97.20;;;;;;1728324;28;20204;-72
2023/06/22 07:45:25;;;;;;;9.40;6.50;;;26.90;97.20;;;;;;1728362;28;20939;-69
2023/06/22 07:46:16;;;;;;;7.10;6.33;;;26.90;97.20;;;;;;1728451;28;20238;-69
2023/06/22 07:47:08;;;;;;;9.93;6.43;;;27.00;97.20;;;;;;1728396;28;20970;-70
2023/06/22 07:47:58;;;;;;;9.77;6.83;;;27.00;97.20;;;;;;1728304;28;20262;-69
2023/06/22 07:48:50;;;;;;;8.43;6.37;;;27.10;97.20;;;;;;1728412;28;20443;-69
2023/06/22 07:49:41;;;;;;;13.00;6.97;;;27.10;97.20;;;;;;1728291;28;20254;-69
2023/06/22 07:50:33;;;;;;;9.20;6.00;;;27.20;97.20;;;;;;1728243;28;20479;-69
2023/06/22 07:51:25;;;;;;;9.15;6.50;;;27.20;97.20;;;;;;1728377;28;20223;-69
2023/06/22 07:52:17;;;;;;;9.60;6.50;;;27.30;97.20;;;;;;1728298;28;20270;-69
2023/06/22 07:53:07;;;;;;;10.83;6.87;;;27.30;97.20;;;;;;1728049;28;20817;-70
2023/06/22 07:53:59;;;;;;;8.70;6.47;;;27.40;97.20;;;;;;1728245;28;20443;-70
2023/06/22 07:54:50;;;;;;;11.03;6.13;;;27.40;97.20;;;;;;1728219;28;20208;-68
2023/06/22 07:55:42;;;;;;;7.10;5.80;;;27.50;97.20;;;;;;1728198;28;20483;-69
2023/06/22 07:56:33;;;;;;;6.77;5.90;;;27.50;97.20;;;;;;1732855;28;20589;-70
2023/06/22 07:57:31;;;;;;;8.38;5.97;;;27.60;97.20;;;;;;1735082;28;20450;-69
2023/06/22 07:58:23;;;;;;;8.40;5.90;;;27.60;97.20;;;;;;1735078;28;20247;-69
2023/06/22 07:59:14;;;;;;;6.80;6.00;;;27.50;97.20;;;;;;1735115;28;20454;-70
2023/06/22 08:00:12;;;;;;;8.10;5.83;;;27.50;97.20;;;;;;1735019;28;20930;-69
2023/06/22 08:01:03;;;;;;;6.20;5.60;;;27.60;97.20;;;;;;1735122;28;20680;-68
2023/06/22 08:01:56;;;;;;;11.80;6.67;;;27.60;97.20;;;;;;1735086;28;20875;-69
2023/06/22 08:02:47;;;;;;;12.67;6.20;;;27.60;97.20;;;;;;1735073;28;20443;-70
2023/06/22 08:03:39;;;;;;;6.80;5.70;;;27.60;97.20;;;;;;1734709;28;20452;-70
2023/06/22 08:04:31;;;;;;;6.67;5.97;;;27.70;97.20;;;;;;1734984;28;20203;-70
2023/06/22 08:05:23;;;;;;;9.27;6.00;;;27.70;97.20;;;;;;1734999;28;20446;-69
2023/06/22 08:06:14;;;;;;;10.60;6.83;;;27.80;97.20;;;;;;1735053;28;20579;-69
2023/06/22 08:07:07;;;;;;;6.73;5.93;;;27.80;97.20;;;;;;1735096;28;20862;-70
2023/06/22 08:07:58;;;;;;;8.40;6.40;;;27.90;97.20;;;;;;1734937;28;20443;-69
2023/06/22 08:08:49;;;;;;;10.80;6.80;;;28.00;97.20;;;;;;1735006;28;20450;-68
2023/06/22 08:09:46;;;;;;;8.03;5.97;;;28.10;97.20;;;;;;1735005;28;20211;-69
2023/06/22 08:10:39;;;;;;;9.43;5.87;;;28.20;97.20;;;;;;1734947;28;20458;-70
2023/06/22 08:11:29;;;;;;;11.10;6.40;;;28.30;97.20;;;;;;1735022;28;20447;-69
2023/06/22 08:12:21;;;;;;;12.03;6.57;;;28.40;97.20;;;;;;1733435;28;20231;-69
2023/06/22 08:13:12;;;;;;;7.80;6.17;;;28.40;97.20;;;;;;1734632;28;20582;-69
2023/06/22 08:14:03;;;;;;;7.70;6.60;;;28.40;97.20;;;;;;1734874;28;20456;-70
2023/06/22 08:14:54;;;;;;;7.97;6.13;;;28.40;97.20;;;;;;1734908;28;20200;-70
2023/06/22 08:15:46;;;;;;;7.60;5.70;;;28.30;97.20;;;;;;1734850;28;20485;-70
2023/06/22 08:16:36;;;;;;;6.63;6.00;;;28.30;97.20;;;;;;1734680;28;20200;-70
2023/06/22 08:17:28;;;;;;;7.30;5.80;;;28.30;97.20;;;;;;1735014;28;20447;-70
2023/06/22 08:18:19;;;;;;;7.83;6.93;;;28.30;97.20;;;;;;1734953;28;20626;-70
2023/06/22 08:19:11;;;;;;;11.13;6.60;;;28.30;97.20;;;;;;1735029;28;20942;-70
2023/06/22 08:20:05;;;;;;;9.40;6.93;;;28.20;97.20;;;;;;1734884;28;20454;-70
2023/06/22 08:20:57;;;;;;;7.50;6.20;;;28.20;97.20;;;;;;1734862;28;20462;-70
2023/06/22 08:21:47;;;;;;;8.00;6.37;;;28.20;97.20;;;;;;1734966;28;20450;-69
2023/06/22 08:22:41;;;;;;;13.70;6.37;;;28.10;97.20;;;;;;1734901;28;20496;-70
2023/06/22 08:23:31;;;;;;;8.33;7.37;;;28.10;97.20;;;;;;1734614;28;20210;-70
2023/06/22 08:24:23;;;;;;;7.10;6.40;;;28.10;97.20;;;;;;1734849;28;20439;-70
2023/06/22 08:25:14;;;;;;;8.73;6.65;;;28.00;97.20;;;;;;1734949;28;20204;-70
2023/06/22 08:26:06;;;;;;;7.73;6.60;;;28.00;97.20;;;;;;1734907;28;20480;-70
2023/06/22 08:26:56;;;;;;;7.90;6.30;;;28.10;97.20;;;;;;1730910;28;20572;-70
2023/06/22 08:27:49;;;;;;;9.00;6.53;;;28.10;97.20;;;;;;1728015;28;20793;-70
2023/06/22 08:28:40;;;;;;;11.10;6.37;;;28.10;97.20;;;;;;1728073;28;20215;-70
2023/06/22 08:29:31;;;;;;;10.13;5.40;;;28.20;97.20;;;;;;1728140;28;20519;-70
2023/06/22 08:30:22;;;;;;;9.27;6.70;;;28.20;97.20;;;;;;1727968;28;20200;-70
2023/06/22 08:31:14;;;;;;;10.27;6.50;;;28.30;97.20;;;;;;1728144;28;20201;-70
2023/06/22 08:32:06;;;;;;;9.20;6.07;;;28.40;97.20;;;;;;1728047;28;20204;-69
2023/06/22 08:32:57;;;;;;;7.80;5.87;;;28.50;97.20;;;;;;1727966;28;20450;-69
2023/06/22 08:33:48;;;;;;;7.77;6.30;;;28.60;97.20;;;;;;1727756;28;20850;-70
2023/06/22 08:34:42;;;;;;;10.57;5.93;;;28.70;97.20;;;;;;1727916;28;20806;-70
2023/06/22 08:35:32;;;;;;;7.97;6.63;;;28.70;97.20;;;;;;1727959;28;20219;-70
2023/06/22 08:36:24;;;;;;;9.47;6.30;;;28.80;97.20;;;;;;1728086;28;20482;-70
2023/06/22 08:37:15;;;;;;;7.33;6.20;;;28.80;97.20;;;;;;1728061;28;20212;-69
2023/06/22 08:38:08;;;;;;;8.10;6.23;;;28.80;97.20;;;;;;1728109;28;20486;-70
2023/06/22 08:39:01;;;;;;;8.37;6.80;;;28.90;97.20;;;;;;1728012;28;20207;-69
2023/06/22 08:39:53;;;;;;;8.80;6.80;;;28.90;97.20;;;;;;1728022;28;20443;-70
2023/06/22 08:40:44;;;;;;;10.50;6.57;;;28.90;97.20;;;;;;1730653;28;20470;-70
2023/06/22 08:41:36;;;;;;;11.10;6.17;;;28.80;97.20;;;;;;1734846;28;20443;-70
2023/06/22 08:42:27;;;;;;;6.50;5.90;;;28.80;97.20;;;;;;1734415;28;20243;-70
2023/06/22 08:43:18;;;;;;;7.07;6.30;;;28.80;97.20;;;;;;1734579;28;20466;-69
2023/06/22 08:44:09;;;;;;;9.87;6.87;;;28.80;97.20;;;;;;1734808;28;20457;-70
2023/06/22 08:45:01;;;;;;;8.30;6.43;;;28.80;97.20;;;;;;1734687;28;20439;-71
2023/06/22 08:45:51;;;;;;;7.00;6.20;;;28.90;97.20;;;;;;1734754;28;20201;-70
2023/06/22 08:46:43;;;;;;;10.20;6.73;;;28.90;97.20;;;;;;1734707;28;20439;-70
2023/06/22 08:47:34;;;;;;;8.97;6.47;;;28.90;97.20;;;;;;1734773;28;20706;-70
2023/06/22 08:48:26;;;;;;;8.20;6.73;;;28.90;97.20;;;;;;1734825;28;20809;-70
2023/06/22 08:49:16;;;;;;;9.73;6.37;;;28.90;97.20;;;;;;1734739;28;20227;-70
2023/06/22 08:50:09;;;;;;;8.10;6.63;;;28.90;97.20;;;;;;1734802;28;20464;-70
2023/06/22 08:51:00;;;;;;;10.60;7.00;;;29.00;97.20;;;;;;1734630;28;20738;-70
2023/06/22 08:51:53;;;;;;;6.90;6.03;;;29.00;97.20;;;;;;1734702;28;20792;-70
2023/06/22 08:52:45;;;;;;;9.50;6.57;;;29.00;97.20;;;;;;1734730;28;20286;-70
2023/06/22 08:53:38;;;;;;;7.97;6.53;;;29.00;97.20;;;;;;1734390;28;20442;-70
2023/06/22 08:54:29;;;;;;;7.50;6.60;;;29.10;97.20;;;;;;1734625;28;20463;-70
2023/06/22 08:55:20;;;;;;;7.57;6.27;;;29.10;97.20;;;;;;1734726;28;20450;-70
2023/06/22 08:56:11;;;;;;;6.53;5.93;;;29.10;97.20;;;;;;1734606;28;20699;-71
2023/06/22 08:57:03;;;;;;;10.60;6.50;;;29.20;97.20;;;;;;1728168;28;20943;-71
2023/06/22 08:57:54;;;;;;;9.00;7.27;;;29.20;97.20;;;;;;1727901;28;20197;-70
2023/06/22 08:58:46;;;;;;;7.40;6.63;;;29.30;97.20;;;;;;1727824;28;20451;-70
2023/06/22 08:59:37;;;;;;;9.00;6.80;;;29.40;97.20;;;;;;1727886;28;20447;-70
2023/06/22 09:00:32;;;;;;;7.30;6.40;;;29.40;97.20;;;;;;1727839;28;20459;-69
2023/06/22 09:01:23;;;;;;;8.73;6.63;;;29.40;97.20;;;;;;1727895;28;20621;-70
2023/06/22 09:02:15;;;;;;;9.10;6.63;;;29.40;97.20;;;;;;1727894;28;20517;-70
2023/06/22 09:03:06;;;;;;;9.57;6.37;;;29.40;97.20;;;;;;1727477;28;20211;-70
2023/06/22 09:03:58;;;;;;;9.40;6.87;;;29.40;97.20;;;;;;1727863;28;20447;-71
2023/06/22 09:04:55;;;;;;;11.73;7.00;;;29.30;97.20;;;;;;1727749;28;20514;-70
2023/06/22 09:05:47;;;;;;;7.90;6.20;;;29.30;97.20;;;;;;1727877;28;20447;-70
2023/06/22 09:06:44;;;;;;;8.87;6.73;;;29.30;97.20;;;;;;1727863;28;20443;-70
2023/06/22 09:07:36;;;;;;;7.80;6.50;;;29.30;97.20;;;;;;1727927;28;20448;-70
2023/06/22 09:08:27;;;;;;;9.93;6.77;;;29.20;97.20;;;;;;1727822;28;21002;-71
2023/06/22 09:09:22;;;;;;;7.23;6.03;;;29.20;97.20;;;;;;1727790;28;20996;-70
2023/06/22 09:10:13;;;;;;;8.07;6.40;;;29.20;97.20;;;;;;1727642;28;20204;-70
2023/06/22 09:11:05;;;;;;;9.93;6.80;;;29.10;97.20;;;;;;1728208;28;20526;-70
2023/06/22 09:11:55;;;;;;;9.67;6.90;;;29.10;97.20;;;;;;1727879;28;20200;-70
2023/06/22 09:12:47;;;;;;;10.63;7.37;;;29.00;97.20;;;;;;1729558;28;20449;-70
2023/06/22 09:13:38;;;;;;;9.87;6.87;;;28.90;97.20;;;;;;1734161;28;20204;-70
2023/06/22 09:14:30;;;;;;;9.10;6.70;;;28.80;97.20;;;;;;1734464;28;20496;-70
2023/06/22 09:15:21;;;;;;;8.80;6.70;;;28.80;97.20;;;;;;1734686;28;20454;-70
2023/06/22 09:16:13;;;;;;;10.07;6.53;;;28.80;97.20;;;;;;1734475;28;20478;-71
2023/06/22 09:17:04;;;;;;;9.17;7.13;;;28.80;97.20;;;;;;1734564;28;20824;-69
2023/06/22 09:17:57;;;;;;;8.20;6.57;;;28.90;97.20;;;;;;1734585;28;20434;-71
2023/06/22 09:18:48;;;;;;;10.13;7.20;;;28.90;97.20;;;;;;1734569;28;20454;-70
2023/06/22 09:19:40;;;;;;;8.70;6.40;;;29.00;97.20;;;;;;1734542;28;20447;-69
2023/06/22 09:20:31;;;;;;;8.00;7.20;;;29.10;97.20;;;;;;1734514;28;20481;-71
2023/06/22 09:21:24;;;;;;;14.73;6.90;;;29.20;97.20;;;;;;1734599;28;20443;-70
2023/06/22 09:22:15;;;;;;;7.27;6.63;;;29.30;97.20;;;;;;1734475;28;20200;-70
2023/06/22 09:23:06;;;;;;;10.40;6.80;;;29.40;97.20;;;;;;1734199;28;20438;-70
2023/06/22 09:23:57;;;;;;;8.30;7.07;;;29.40;97.20;;;;;;1734526;28;20443;-70
2023/06/22 09:24:51;;;;;;;10.57;7.53;;;29.50;97.20;;;;;;1734494;28;20454;-69
2023/06/22 09:25:42;;;;;;;10.53;7.37;;;29.60;97.20;;;;;;1734477;28;20447;-70
2023/06/22 09:26:33;;;;;;;9.43;6.40;;;29.70;97.20;;;;;;1734553;28;20461;-70